sensor_id;sensor_type;location;lat;lon;timestamp;temperature;humidity
16867;DHT22;8550;52.596;13.320;2023-08-07T00:03:07;14.40;99.90
16867;DHT22;8550;52.596;13.320;2023-08-07T00:08:10;14.40;99.90
16867;DHT22;8550;52.596;13.320;2023-08-07T00:13:12;14.40;99.90
16867;DHT22;8550;52.596;13.320;2023-08-07T00:18:14;14.50;99.90
16867;DHT22;8550;52.596;13.320;2023-08-07T00:23:17;14.60;99.90
16867;DHT22;8550;52.596;13.320;2023-08-07T00:28:19;14.60;99.90
16867;DHT22;8550;52.596;13.320;2023-08-07T00:33:21;14.60;99.90
16867;DHT22;8550;52.596;13.320;2023-08-07T00:38:24;14.70;99.90
16867;DHT22;8550;52.596;13.320;2023-08-07T00:43:26;14.70;99.90
16867;DHT22;8550;52.596;13.320;2023-08-07T00:48:28;14.70;99.90
16867;DHT22;8550;52.596;13.320;2023-08-07T00:53:32;14.70;99.90
16867;DHT22;8550;52.596;13.320;2023-08-07T00:58:36;14.60;99.90
16867;DHT22;8550;52.596;13.320;2023-08-07T01:03:38;14.60;99.90
16867;DHT22;8550;52.596;13.320;2023-08-07T01:08:41;14.60;99.90
16867;DHT22;8550;52.596;13.320;2023-08-07T01:13:50;14.70;99.90
16867;DHT22;8550;52.596;13.320;2023-08-07T01:18:57;14.70;99.90
16867;DHT22;8550;52.596;13.320;2023-08-07T01:24:02;14.60;99.90
16867;DHT22;8550;52.596;13.320;2023-08-07T01:29:09;14.70;99.90
16867;DHT22;8550;52.596;13.320;2023-08-07T01:34:16;14.70;99.90
16867;DHT22;8550;52.596;13.320;2023-08-07T01:39:21;14.60;99.90
16867;DHT22;8550;52.596;13.320;2023-08-07T01:44:24;14.60;99.90
16867;DHT22;8550;52.596;13.320;2023-08-07T01:49:26;14.50;99.90
16867;DHT22;8550;52.596;13.320;2023-08-07T01:54:29;14.50;99.90
16867;DHT22;8550;52.596;13.320;2023-08-07T01:59:31;14.40;99.90
16867;DHT22;8550;52.596;13.320;2023-08-07T02:04:33;14.40;99.90
16867;DHT22;8550;52.596;13.320;2023-08-07T02:09:36;14.40;99.90
16867;DHT22;8550;52.596;13.320;2023-08-07T02:14:38;14.40;99.90
16867;DHT22;8550;52.596;13.320;2023-08-07T02:19:40;14.40;99.90
16867;DHT22;8550;52.596;13.320;2023-08-07T02:24:43;14.40;99.90
16867;DHT22;8550;52.596;13.320;2023-08-07T02:29:45;14.50;99.90
16867;DHT22;8550;52.596;13.320;2023-08-07T02:34:47;14.60;99.90
16867;DHT22;8550;52.596;13.320;2023-08-07T02:39:50;14.60;99.90
16867;DHT22;8550;52.596;13.320;2023-08-07T02:44:54;14.60;99.90
16867;DHT22;8550;52.596;13.320;2023-08-07T02:49:55;14.70;99.90
16867;DHT22;8550;52.596;13.320;2023-08-07T02:54:59;14.70;99.90
16867;DHT22;8550;52.596;13.320;2023-08-07T03:00:01;14.70;99.90
16867;DHT22;8550;52.596;13.320;2023-08-07T03:05:03;14.80;99.90
16867;DHT22;8550;52.596;13.320;2023-08-07T03:10:07;14.80;99.90
16867;DHT22;8550;52.596;13.320;2023-08-07T03:15:10;14.90;99.90
16867;DHT22;8550;52.596;13.320;2023-08-07T03:20:12;14.90;99.90
16867;DHT22;8550;52.596;13.320;2023-08-07T03:25:16;14.90;99.90
16867;DHT22;8550;52.596;13.320;2023-08-07T03:30:18;14.90;99.90
16867;DHT22;8550;52.596;13.320;2023-08-07T03:35:19;15.00;99.90
16867;DHT22;8550;52.596;13.320;2023-08-07T03:40:23;15.00;99.90
16867;DHT22;8550;52.596;13.320;2023-08-07T03:45:25;15.00;99.90
16867;DHT22;8550;52.596;13.320;2023-08-07T03:50:27;15.00;99.90
16867;DHT22;8550;52.596;13.320;2023-08-07T03:55:32;15.00;99.90
16867;DHT22;8550;52.596;13.320;2023-08-07T04:00:34;15.00;99.90
16867;DHT22;8550;52.596;13.320;2023-08-07T04:05:35;15.00;99.90
16867;DHT22;8550;52.596;13.320;2023-08-07T04:10:39;15.10;99.90
16867;DHT22;8550;52.596;13.320;2023-08-07T04:15:41;15.10;99.90
16867;DHT22;8550;52.596;13.320;2023-08-07T04:20:44;15.00;99.90
16867;DHT22;8550;52.596;13.320;2023-08-07T04:25:53;15.10;99.90
16867;DHT22;8550;52.596;13.320;2023-08-07T04:30:55;15.00;99.90
16867;DHT22;8550;52.596;13.320;2023-08-07T04:35:57;15.10;99.90
16867;DHT22;8550;52.596;13.320;2023-08-07T04:41:00;15.10;99.90
16867;DHT22;8550;52.596;13.320;2023-08-07T04:46:03;15.20;99.90
16867;DHT22;8550;52.596;13.320;2023-08-07T04:51:05;15.20;99.90
16867;DHT22;8550;52.596;13.320;2023-08-07T04:56:08;15.20;99.90
16867;DHT22;8550;52.596;13.320;2023-08-07T05:01:10;15.30;99.90
16867;DHT22;8550;52.596;13.320;2023-08-07T05:06:12;15.30;99.90
16867;DHT22;8550;52.596;13.320;2023-08-07T05:11:15;15.30;99.90
16867;DHT22;8550;52.596;13.320;2023-08-07T05:16:17;15.30;99.90
16867;DHT22;8550;52.596;13.320;2023-08-07T05:21:19;15.40;99.90
16867;DHT22;8550;52.596;13.320;2023-08-07T05:26:22;15.40;99.90
16867;DHT22;8550;52.596;13.320;2023-08-07T05:31:25;15.30;99.90
16867;DHT22;8550;52.596;13.320;2023-08-07T05:36:26;15.30;99.90
16867;DHT22;8550;52.596;13.320;2023-08-07T05:41:31;15.30;99.90
16867;DHT22;8550;52.596;13.320;2023-08-07T05:46:33;15.30;99.90
16867;DHT22;8550;52.596;13.320;2023-08-07T05:51:35;15.30;99.90
16867;DHT22;8550;52.596;13.320;2023-08-07T05:56:40;15.40;99.90
16867;DHT22;8550;52.596;13.320;2023-08-07T06:01:42;15.50;99.90
16867;DHT22;8550;52.596;13.320;2023-08-07T06:06:44;15.60;99.90
16867;DHT22;8550;52.596;13.320;2023-08-07T06:11:47;15.70;99.90
16867;DHT22;8550;52.596;13.320;2023-08-07T06:16:49;15.90;99.90
16867;DHT22;8550;52.596;13.320;2023-08-07T06:21:51;16.10;99.90
16867;DHT22;8550;52.596;13.320;2023-08-07T06:26:54;16.20;99.90
16867;DHT22;8550;52.596;13.320;2023-08-07T06:31:56;16.40;99.90
16867;DHT22;8550;52.596;13.320;2023-08-07T06:36:58;16.30;99.90
16867;DHT22;8550;52.596;13.320;2023-08-07T06:42:02;16.40;99.90
16867;DHT22;8550;52.596;13.320;2023-08-07T06:47:04;16.50;99.90
16867;DHT22;8550;52.596;13.320;2023-08-07T06:52:06;16.50;99.90
16867;DHT22;8550;52.596;13.320;2023-08-07T06:57:09;16.60;99.90
16867;DHT22;8550;52.596;13.320;2023-08-07T07:02:11;16.70;99.90
16867;DHT22;8550;52.596;13.320;2023-08-07T07:07:13;17.00;99.90
16867;DHT22;8550;52.596;13.320;2023-08-07T07:12:17;17.10;99.90
16867;DHT22;8550;52.596;13.320;2023-08-07T07:17:18;17.30;99.90
16867;DHT22;8550;52.596;13.320;2023-08-07T07:22:20;17.50;99.90
16867;DHT22;8550;52.596;13.320;2023-08-07T07:27:24;17.70;99.90
16867;DHT22;8550;52.596;13.320;2023-08-07T07:32:26;17.60;99.90
16867;DHT22;8550;52.596;13.320;2023-08-07T07:37:29;17.70;99.90
16867;DHT22;8550;52.596;13.320;2023-08-07T07:42:32;17.60;99.90
16867;DHT22;8550;52.596;13.320;2023-08-07T07:47:34;17.80;99.90
16867;DHT22;8550;52.596;13.320;2023-08-07T07:52:37;17.90;99.90
16867;DHT22;8550;52.596;13.320;2023-08-07T07:57:41;18.00;99.90
16867;DHT22;8550;52.596;13.320;2023-08-07T08:02:42;17.80;99.90
16867;DHT22;8550;52.596;13.320;2023-08-07T08:07:44;17.90;99.90
16867;DHT22;8550;52.596;13.320;2023-08-07T08:12:48;18.00;99.90
16867;DHT22;8550;52.596;13.320;2023-08-07T08:17:50;18.20;99.90
16867;DHT22;8550;52.596;13.320;2023-08-07T08:22:52;17.90;99.90
16867;DHT22;8550;52.596;13.320;2023-08-07T08:27:55;18.20;99.90
16867;DHT22;8550;52.596;13.320;2023-08-07T08:32:57;18.40;99.90
16867;DHT22;8550;52.596;13.320;2023-08-07T08:37:59;18.20;99.90
16867;DHT22;8550;52.596;13.320;2023-08-07T08:43:02;18.20;99.90
16867;DHT22;8550;52.596;13.320;2023-08-07T08:48:07;18.30;99.90
16867;DHT22;8550;52.596;13.320;2023-08-07T08:53:11;18.40;99.90
16867;DHT22;8550;52.596;13.320;2023-08-07T08:58:16;18.70;99.90
16867;DHT22;8550;52.596;13.320;2023-08-07T09:03:19;18.60;99.90
16867;DHT22;8550;52.596;13.320;2023-08-07T09:08:22;18.50;99.90
16867;DHT22;8550;52.596;13.320;2023-08-07T09:13:28;18.90;99.90
16867;DHT22;8550;52.596;13.320;2023-08-07T09:18:30;19.20;99.90
16867;DHT22;8550;52.596;13.320;2023-08-07T09:23:32;19.60;99.90
16867;DHT22;8550;52.596;13.320;2023-08-07T09:28:36;19.40;99.90
16867;DHT22;8550;52.596;13.320;2023-08-07T09:33:39;19.00;99.90
16867;DHT22;8550;52.596;13.320;2023-08-07T09:38:41;19.00;99.90
16867;DHT22;8550;52.596;13.320;2023-08-07T09:43:44;19.20;99.90
16867;DHT22;8550;52.596;13.320;2023-08-07T09:48:46;19.30;99.90
16867;DHT22;8550;52.596;13.320;2023-08-07T09:53:49;19.40;99.90
16867;DHT22;8550;52.596;13.320;2023-08-07T09:58:53;19.20;99.90
16867;DHT22;8550;52.596;13.320;2023-08-07T10:03:56;19.10;99.90
16867;DHT22;8550;52.596;13.320;2023-08-07T10:08:59;18.90;99.90
16867;DHT22;8550;52.596;13.320;2023-08-07T10:14:04;19.20;99.90
16867;DHT22;8550;52.596;13.320;2023-08-07T10:19:06;19.50;99.90
16867;DHT22;8550;52.596;13.320;2023-08-07T10:24:11;19.40;99.90
16867;DHT22;8550;52.596;13.320;2023-08-07T10:29:17;19.20;99.90
16867;DHT22;8550;52.596;13.320;2023-08-07T10:34:21;19.40;99.90
16867;DHT22;8550;52.596;13.320;2023-08-07T10:39:23;19.70;99.90
16867;DHT22;8550;52.596;13.320;2023-08-07T10:44:30;19.80;99.90
16867;DHT22;8550;52.596;13.320;2023-08-07T10:49:35;20.10;99.90
16867;DHT22;8550;52.596;13.320;2023-08-07T10:54:37;19.70;99.90
16867;DHT22;8550;52.596;13.320;2023-08-07T10:59:51;18.50;99.90
16867;DHT22;8550;52.596;13.320;2023-08-07T11:05:06;18.00;99.90
16867;DHT22;8550;52.596;13.320;2023-08-07T11:10:08;18.20;99.90
16867;DHT22;8550;52.596;13.320;2023-08-07T11:15:15;18.20;99.90
16867;DHT22;8550;52.596;13.320;2023-08-07T11:20:19;18.10;99.90
16867;DHT22;8550;52.596;13.320;2023-08-07T11:25:21;18.60;99.90
16867;DHT22;8550;52.596;13.320;2023-08-07T11:30:24;18.90;99.90
16867;DHT22;8550;52.596;13.320;2023-08-07T11:35:26;18.40;99.90
16867;DHT22;8550;52.596;13.320;2023-08-07T11:40:28;18.90;99.90
16867;DHT22;8550;52.596;13.320;2023-08-07T11:45:31;19.00;99.90
16867;DHT22;8550;52.596;13.320;2023-08-07T11:50:33;19.10;99.90
16867;DHT22;8550;52.596;13.320;2023-08-07T11:55:35;19.30;99.90
16867;DHT22;8550;52.596;13.320;2023-08-07T12:00:43;20.20;99.90
16867;DHT22;8550;52.596;13.320;2023-08-07T12:05:44;21.00;99.90
16867;DHT22;8550;52.596;13.320;2023-08-07T12:10:49;21.10;99.90
16867;DHT22;8550;52.596;13.320;2023-08-07T12:15:53;20.70;99.90
16867;DHT22;8550;52.596;13.320;2023-08-07T12:20:59;21.20;99.90
16867;DHT22;8550;52.596;13.320;2023-08-07T12:26:01;21.40;99.90
16867;DHT22;8550;52.596;13.320;2023-08-07T12:31:05;22.60;99.90
16867;DHT22;8550;52.596;13.320;2023-08-07T12:36:07;23.00;99.90
16867;DHT22;8550;52.596;13.320;2023-08-07T12:41:11;23.40;99.90
16867;DHT22;8550;52.596;13.320;2023-08-07T12:46:14;22.30;99.90
16867;DHT22;8550;52.596;13.320;2023-08-07T12:51:17;23.10;99.20
16867;DHT22;8550;52.596;13.320;2023-08-07T12:56:18;21.50;98.60
16867;DHT22;8550;52.596;13.320;2023-08-07T13:01:23;20.80;99.90
16867;DHT22;8550;52.596;13.320;2023-08-07T13:06:26;21.90;99.60
16867;DHT22;8550;52.596;13.320;2023-08-07T13:11:28;23.70;95.00
16867;DHT22;8550;52.596;13.320;2023-08-07T13:16:31;23.90;91.60
16867;DHT22;8550;52.596;13.320;2023-08-07T13:21:33;23.70;90.00
16867;DHT22;8550;52.596;13.320;2023-08-07T13:26:35;23.90;88.40
16867;DHT22;8550;52.596;13.320;2023-08-07T13:31:38;23.00;83.60
16867;DHT22;8550;52.596;13.320;2023-08-07T13:36:41;23.30;82.10
16867;DHT22;8550;52.596;13.320;2023-08-07T13:41:43;23.80;76.60
16867;DHT22;8550;52.596;13.320;2023-08-07T13:46:46;24.70;73.50
16867;DHT22;8550;52.596;13.320;2023-08-07T13:51:49;25.00;73.10
16867;DHT22;8550;52.596;13.320;2023-08-07T13:56:51;24.70;73.80
16867;DHT22;8550;52.596;13.320;2023-08-07T14:01:54;23.20;75.10
16867;DHT22;8550;52.596;13.320;2023-08-07T14:06:57;22.40;80.70
16867;DHT22;8550;52.596;13.320;2023-08-07T14:11:59;21.70;85.90
16867;DHT22;8550;52.596;13.320;2023-08-07T14:17:03;21.00;90.20
16867;DHT22;8550;52.596;13.320;2023-08-07T14:22:05;21.10;92.40
16867;DHT22;8550;52.596;13.320;2023-08-07T14:27:07;21.40;90.30
16867;DHT22;8550;52.596;13.320;2023-08-07T14:32:10;23.10;81.90
16867;DHT22;8550;52.596;13.320;2023-08-07T14:37:12;22.10;84.10
16867;DHT22;8550;52.596;13.320;2023-08-07T14:42:14;21.10;89.40
16867;DHT22;8550;52.596;13.320;2023-08-07T14:47:17;21.00;90.80
16867;DHT22;8550;52.596;13.320;2023-08-07T14:52:19;20.80;89.50
16867;DHT22;8550;52.596;13.320;2023-08-07T14:57:21;20.10;91.50
16867;DHT22;8550;52.596;13.320;2023-08-07T15:02:24;19.80;93.80
16867;DHT22;8550;52.596;13.320;2023-08-07T15:07:26;19.60;95.00
16867;DHT22;8550;52.596;13.320;2023-08-07T15:12:28;20.00;94.20
16867;DHT22;8550;52.596;13.320;2023-08-07T15:17:32;20.40;92.90
16867;DHT22;8550;52.596;13.320;2023-08-07T15:22:34;20.20;91.60
16867;DHT22;8550;52.596;13.320;2023-08-07T15:27:36;20.00;91.70
16867;DHT22;8550;52.596;13.320;2023-08-07T15:32:39;20.20;92.60
16867;DHT22;8550;52.596;13.320;2023-08-07T15:37:41;20.00;92.50
16867;DHT22;8550;52.596;13.320;2023-08-07T15:42:43;19.70;92.60
16867;DHT22;8550;52.596;13.320;2023-08-07T15:47:47;19.70;93.40
16867;DHT22;8550;52.596;13.320;2023-08-07T15:52:49;19.80;93.60
16867;DHT22;8550;52.596;13.320;2023-08-07T15:57:51;19.90;94.40
16867;DHT22;8550;52.596;13.320;2023-08-07T16:02:54;20.20;93.80
16867;DHT22;8550;52.596;13.320;2023-08-07T16:07:56;20.20;93.10
16867;DHT22;8550;52.596;13.320;2023-08-07T16:13:06;20.10;93.50
16867;DHT22;8550;52.596;13.320;2023-08-07T16:18:08;19.70;94.60
16867;DHT22;8550;52.596;13.320;2023-08-07T16:23:10;19.70;95.70
16867;DHT22;8550;52.596;13.320;2023-08-07T16:28:14;19.70;95.70
16867;DHT22;8550;52.596;13.320;2023-08-07T16:33:15;19.40;96.70
16867;DHT22;8550;52.596;13.320;2023-08-07T16:38:17;19.10;98.40
16867;DHT22;8550;52.596;13.320;2023-08-07T16:43:21;18.90;96.60
16867;DHT22;8550;52.596;13.320;2023-08-07T16:48:23;18.90;97.40
16867;DHT22;8550;52.596;13.320;2023-08-07T16:53:25;19.00;97.00
16867;DHT22;8550;52.596;13.320;2023-08-07T16:58:28;18.90;96.70
16867;DHT22;8550;52.596;13.320;2023-08-07T17:03:30;18.90;97.10
16867;DHT22;8550;52.596;13.320;2023-08-07T17:08:32;18.80;97.20
16867;DHT22;8550;52.596;13.320;2023-08-07T17:13:35;18.60;98.40
16867;DHT22;8550;52.596;13.320;2023-08-07T17:18:37;18.60;98.80
16867;DHT22;8550;52.596;13.320;2023-08-07T17:23:39;18.50;98.70
16867;DHT22;8550;52.596;13.320;2023-08-07T17:28:43;18.60;98.70
16867;DHT22;8550;52.596;13.320;2023-08-07T17:33:44;18.50;97.70
16867;DHT22;8550;52.596;13.320;2023-08-07T17:38:47;18.50;97.30
16867;DHT22;8550;52.596;13.320;2023-08-07T17:43:50;18.30;97.40
16867;DHT22;8550;52.596;13.320;2023-08-07T17:48:52;18.40;96.90
16867;DHT22;8550;52.596;13.320;2023-08-07T17:53:54;18.10;98.10
16867;DHT22;8550;52.596;13.320;2023-08-07T17:59:00;18.00;98.50
16867;DHT22;8550;52.596;13.320;2023-08-07T18:04:02;17.90;98.10
16867;DHT22;8550;52.596;13.320;2023-08-07T18:09:04;17.80;99.30
16867;DHT22;8550;52.596;13.320;2023-08-07T18:14:08;17.60;99.60
16867;DHT22;8550;52.596;13.320;2023-08-07T18:19:10;17.50;99.90
16867;DHT22;8550;52.596;13.320;2023-08-07T18:24:13;17.30;99.90
16867;DHT22;8550;52.596;13.320;2023-08-07T18:29:17;17.30;99.90
16867;DHT22;8550;52.596;13.320;2023-08-07T18:34:18;17.20;99.90
16867;DHT22;8550;52.596;13.320;2023-08-07T18:39:20;17.10;99.90
16867;DHT22;8550;52.596;13.320;2023-08-07T18:44:24;17.10;99.90
16867;DHT22;8550;52.596;13.320;2023-08-07T18:49:26;17.10;99.90
16867;DHT22;8550;52.596;13.320;2023-08-07T18:54:28;17.00;99.90
16867;DHT22;8550;52.596;13.320;2023-08-07T18:59:31;17.00;99.90
16867;DHT22;8550;52.596;13.320;2023-08-07T19:04:33;16.90;99.90
16867;DHT22;8550;52.596;13.320;2023-08-07T19:09:35;16.80;99.90
16867;DHT22;8550;52.596;13.320;2023-08-07T19:14:38;16.80;99.90
16867;DHT22;8550;52.596;13.320;2023-08-07T19:19:40;16.80;99.90
16867;DHT22;8550;52.596;13.320;2023-08-07T19:24:42;16.70;99.90
16867;DHT22;8550;52.596;13.320;2023-08-07T19:29:46;16.70;99.90
16867;DHT22;8550;52.596;13.320;2023-08-07T19:34:48;16.50;99.90
16867;DHT22;8550;52.596;13.320;2023-08-07T19:39:49;16.30;99.90
16867;DHT22;8550;52.596;13.320;2023-08-07T19:44:53;16.20;99.90
16867;DHT22;8550;52.596;13.320;2023-08-07T19:49:55;16.10;99.90
16867;DHT22;8550;52.596;13.320;2023-08-07T19:54:57;15.90;99.90
16867;DHT22;8550;52.596;13.320;2023-08-07T20:00:00;15.80;99.90
16867;DHT22;8550;52.596;13.320;2023-08-07T20:05:02;15.70;99.90
16867;DHT22;8550;52.596;13.320;2023-08-07T20:10:06;15.60;99.90
16867;DHT22;8550;52.596;13.320;2023-08-07T20:15:11;15.70;99.90
16867;DHT22;8550;52.596;13.320;2023-08-07T20:20:14;15.70;99.90
16867;DHT22;8550;52.596;13.320;2023-08-07T20:25:18;15.80;99.90
16867;DHT22;8550;52.596;13.320;2023-08-07T20:30:21;15.80;99.90
16867;DHT22;8550;52.596;13.320;2023-08-07T20:35:23;15.80;99.90
16867;DHT22;8550;52.596;13.320;2023-08-07T20:40:25;15.80;99.90
16867;DHT22;8550;52.596;13.320;2023-08-07T20:45:29;15.70;99.90
16867;DHT22;8550;52.596;13.320;2023-08-07T20:50:30;15.60;99.90
16867;DHT22;8550;52.596;13.320;2023-08-07T20:55:32;15.60;99.90
16867;DHT22;8550;52.596;13.320;2023-08-07T21:00:36;15.60;99.90
16867;DHT22;8550;52.596;13.320;2023-08-07T21:05:37;15.60;99.90
16867;DHT22;8550;52.596;13.320;2023-08-07T21:10:39;15.60;99.90
16867;DHT22;8550;52.596;13.320;2023-08-07T21:15:42;15.70;99.90
16867;DHT22;8550;52.596;13.320;2023-08-07T21:20:45;15.70;99.90
16867;DHT22;8550;52.596;13.320;2023-08-07T21:25:47;15.60;99.90
16867;DHT22;8550;52.596;13.320;2023-08-07T21:30:53;15.60;99.90
16867;DHT22;8550;52.596;13.320;2023-08-07T21:35:55;15.40;99.90
16867;DHT22;8550;52.596;13.320;2023-08-07T21:40:57;15.30;99.90
16867;DHT22;8550;52.596;13.320;2023-08-07T21:46:01;15.30;99.90
16867;DHT22;8550;52.596;13.320;2023-08-07T21:51:03;15.40;99.90
16867;DHT22;8550;52.596;13.320;2023-08-07T21:56:05;15.30;99.90
16867;DHT22;8550;52.596;13.320;2023-08-07T22:01:08;15.20;99.90
16867;DHT22;8550;52.596;13.320;2023-08-07T22:06:10;15.30;99.90
16867;DHT22;8550;52.596;13.320;2023-08-07T22:11:12;15.40;99.90
16867;DHT22;8550;52.596;13.320;2023-08-07T22:16:15;15.30;99.90
16867;DHT22;8550;52.596;13.320;2023-08-07T22:21:17;15.20;99.90
16867;DHT22;8550;52.596;13.320;2023-08-07T22:26:19;15.10;99.90
16867;DHT22;8550;52.596;13.320;2023-08-07T22:31:22;15.10;99.90
16867;DHT22;8550;52.596;13.320;2023-08-07T22:36:24;15.10;99.90
16867;DHT22;8550;52.596;13.320;2023-08-07T22:41:26;15.00;99.90
16867;DHT22;8550;52.596;13.320;2023-08-07T22:46:30;15.00;99.90
16867;DHT22;8550;52.596;13.320;2023-08-07T22:51:32;14.90;99.90
16867;DHT22;8550;52.596;13.320;2023-08-07T22:56:34;14.80;99.90
16867;DHT22;8550;52.596;13.320;2023-08-07T23:01:37;14.80;99.90
16867;DHT22;8550;52.596;13.320;2023-08-07T23:06:39;14.90;99.90
16867;DHT22;8550;52.596;13.320;2023-08-07T23:11:41;14.90;99.90
16867;DHT22;8550;52.596;13.320;2023-08-07T23:16:44;14.90;99.90
16867;DHT22;8550;52.596;13.320;2023-08-07T23:21:46;14.90;99.90
16867;DHT22;8550;52.596;13.320;2023-08-07T23:26:48;14.80;99.90
16867;DHT22;8550;52.596;13.320;2023-08-07T23:31:51;14.90;99.90
16867;DHT22;8550;52.596;13.320;2023-08-07T23:36:53;15.00;99.90
16867;DHT22;8550;52.596;13.320;2023-08-07T23:41:55;15.00;99.90
16867;DHT22;8550;52.596;13.320;2023-08-07T23:46:59;15.00;99.90
16867;DHT22;8550;52.596;13.320;2023-08-07T23:52:01;15.00;99.90
16867;DHT22;8550;52.596;13.320;2023-08-07T23:57:03;14.80;99.90
